sensor_id;sensor_type;location;lat;lon;timestamp;pressure;altitude;pressure_sealevel;temperature;humidity
69219;BME280;56232;53.384;-2.732;2022-09-01T00:00:09;102164.40;;;13.56;34.35
69219;BME280;56232;53.384;-2.732;2022-09-01T00:02:33;102162.08;;;14.14;34.28
69219;BME280;56232;53.384;-2.732;2022-09-01T00:04:56;102165.37;;;13.58;34.02
69219;BME280;56232;53.384;-2.732;2022-09-01T00:07:22;102160.38;;;14.25;31.36
69219;BME280;56232;53.384;-2.732;2022-09-01T00:09:48;102161.44;;;14.23;32.75
69219;BME280;56232;53.384;-2.732;2022-09-01T00:12:13;102161.78;;;14.79;32.29
69219;BME280;56232;53.384;-2.732;2022-09-01T00:14:40;102162.18;;;13.23;32.44
69219;BME280;56232;53.384;-2.732;2022-09-01T00:17:07;102157.54;;;14.33;33.04
69219;BME280;56232;53.384;-2.732;2022-09-01T00:19:30;102157.71;;;13.12;32.85
69219;BME280;56232;53.384;-2.732;2022-09-01T00:21:56;102155.64;;;14.09;33.00
69219;BME280;56232;53.384;-2.732;2022-09-01T00:24:21;102154.28;;;14.07;34.52
69219;BME280;56232;53.384;-2.732;2022-09-01T00:26:47;102156.83;;;13.33;33.65
69219;BME280;56232;53.384;-2.732;2022-09-01T00:29:12;102150.81;;;13.93;35.42
69219;BME280;56232;53.384;-2.732;2022-09-01T00:31:37;102152.40;;;13.92;34.81
69219;BME280;56232;53.384;-2.732;2022-09-01T00:34:03;102149.72;;;13.19;35.36
69219;BME280;56232;53.384;-2.732;2022-09-01T00:36:28;102147.76;;;13.79;33.44
69219;BME280;56232;53.384;-2.732;2022-09-01T00:38:54;102150.19;;;13.83;33.85
69219;BME280;56232;53.384;-2.732;2022-09-01T00:41:22;102154.21;;;13.77;33.95
69219;BME280;56232;53.384;-2.732;2022-09-01T00:43:47;102150.87;;;13.75;33.90
69219;BME280;56232;53.384;-2.732;2022-09-01T00:46:14;102150.97;;;13.79;33.71
69219;BME280;56232;53.384;-2.732;2022-09-01T00:48:37;102150.80;;;13.72;33.21
69219;BME280;56232;53.384;-2.732;2022-09-01T00:51:03;102148.60;;;13.67;33.74
69219;BME280;56232;53.384;-2.732;2022-09-01T00:53:28;102151.44;;;13.63;33.80
69219;BME280;56232;53.384;-2.732;2022-09-01T00:55:54;102145.48;;;13.63;34.08
69219;BME280;56232;53.384;-2.732;2022-09-01T00:58:19;102147.63;;;13.53;32.39
69219;BME280;56232;53.384;-2.732;2022-09-01T01:00:46;102141.84;;;13.52;33.71
69219;BME280;56232;53.384;-2.732;2022-09-01T01:03:11;102140.63;;;13.99;33.37
69219;BME280;56232;53.384;-2.732;2022-09-01T01:05:39;102139.31;;;13.55;32.80
69219;BME280;56232;53.384;-2.732;2022-09-01T01:08:03;102132.85;;;13.50;32.87
69219;BME280;56232;53.384;-2.732;2022-09-01T01:10:30;102132.79;;;13.42;32.28
69219;BME280;56232;53.384;-2.732;2022-09-01T01:12:53;102131.46;;;13.36;32.54
69219;BME280;56232;53.384;-2.732;2022-09-01T01:15:19;102127.76;;;13.36;32.92
69219;BME280;56232;53.384;-2.732;2022-09-01T01:17:44;102132.79;;;13.27;32.68
69219;BME280;56232;53.384;-2.732;2022-09-01T01:20:13;102130.84;;;13.12;32.77
69219;BME280;56232;53.384;-2.732;2022-09-01T01:22:42;102130.33;;;13.12;32.41
69219;BME280;56232;53.384;-2.732;2022-09-01T01:25:02;102133.07;;;13.23;32.44
69219;BME280;56232;53.384;-2.732;2022-09-01T01:27:30;102128.55;;;13.83;32.41
69219;BME280;56232;53.384;-2.732;2022-09-01T01:29:53;102128.30;;;13.35;33.16
69219;BME280;56232;53.384;-2.732;2022-09-01T01:32:18;102126.16;;;12.85;32.22
69219;BME280;56232;53.384;-2.732;2022-09-01T01:34:44;102121.00;;;13.34;33.25
69219;BME280;56232;53.384;-2.732;2022-09-01T01:37:10;102117.89;;;13.29;33.01
69219;BME280;56232;53.384;-2.732;2022-09-01T01:39:36;102110.53;;;13.21;32.41
69219;BME280;56232;53.384;-2.732;2022-09-01T01:42:01;102113.37;;;13.55;32.79
69219;BME280;56232;53.384;-2.732;2022-09-01T01:44:27;102113.45;;;12.96;32.60
69219;BME280;56232;53.384;-2.732;2022-09-01T01:46:54;102114.10;;;13.96;32.44
69219;BME280;56232;53.384;-2.732;2022-09-01T01:49:20;102112.18;;;13.01;32.03
69219;BME280;56232;53.384;-2.732;2022-09-01T01:51:43;102109.99;;;13.06;32.64
69219;BME280;56232;53.384;-2.732;2022-09-01T01:54:09;102112.57;;;12.68;31.62
69219;BME280;56232;53.384;-2.732;2022-09-01T01:56:35;102109.20;;;13.27;32.58
69219;BME280;56232;53.384;-2.732;2022-09-01T01:59:00;102109.04;;;13.40;31.87
69219;BME280;56232;53.384;-2.732;2022-09-01T02:01:27;102107.36;;;13.87;31.76
69219;BME280;56232;53.384;-2.732;2022-09-01T02:03:51;102110.29;;;13.31;33.29
69219;BME280;56232;53.384;-2.732;2022-09-01T02:06:17;102108.58;;;13.25;32.65
69219;BME280;56232;53.384;-2.732;2022-09-01T02:08:42;102104.15;;;13.22;32.68
69219;BME280;56232;53.384;-2.732;2022-09-01T02:11:08;102105.10;;;13.11;32.66
69219;BME280;56232;53.384;-2.732;2022-09-01T02:13:34;102104.83;;;13.75;32.33
69219;BME280;56232;53.384;-2.732;2022-09-01T02:16:02;102106.38;;;13.31;32.39
69219;BME280;56232;53.384;-2.732;2022-09-01T02:18:27;102105.72;;;13.20;31.95
69219;BME280;56232;53.384;-2.732;2022-09-01T02:20:51;102104.02;;;13.15;33.74
69219;BME280;56232;53.384;-2.732;2022-09-01T02:23:17;102096.12;;;13.07;32.99
69219;BME280;56232;53.384;-2.732;2022-09-01T02:25:43;102095.99;;;13.64;32.69
69219;BME280;56232;53.384;-2.732;2022-09-01T02:28:07;102093.09;;;13.65;32.97
69219;BME280;56232;53.384;-2.732;2022-09-01T02:30:34;102089.64;;;13.10;32.95
69219;BME280;56232;53.384;-2.732;2022-09-01T02:32:58;102086.70;;;13.02;32.67
69219;BME280;56232;53.384;-2.732;2022-09-01T02:35:24;102088.41;;;13.00;32.75
69219;BME280;56232;53.384;-2.732;2022-09-01T02:37:49;102086.04;;;13.88;32.81
69219;BME280;56232;53.384;-2.732;2022-09-01T02:40:15;102083.95;;;12.80;32.93
69219;BME280;56232;53.384;-2.732;2022-09-01T02:42:41;102084.40;;;13.77;33.24
69219;BME280;56232;53.384;-2.732;2022-09-01T02:45:08;102087.33;;;13.25;32.96
69219;BME280;56232;53.384;-2.732;2022-09-01T02:47:33;102085.45;;;13.23;33.10
69219;BME280;56232;53.384;-2.732;2022-09-01T02:49:58;102080.58;;;12.76;33.12
69219;BME280;56232;53.384;-2.732;2022-09-01T02:52:23;102080.19;;;12.72;32.51
69219;BME280;56232;53.384;-2.732;2022-09-01T02:54:49;102078.16;;;13.26;34.00
69219;BME280;56232;53.384;-2.732;2022-09-01T02:57:15;102079.83;;;12.86;33.15
69219;BME280;56232;53.384;-2.732;2022-09-01T02:59:41;102082.25;;;12.95;33.16
69219;BME280;56232;53.384;-2.732;2022-09-01T03:02:07;102082.12;;;13.51;33.37
69219;BME280;56232;53.384;-2.732;2022-09-01T03:04:34;102078.79;;;13.03;33.57
69219;BME280;56232;53.384;-2.732;2022-09-01T03:06:57;102079.04;;;13.21;33.55
69219;BME280;56232;53.384;-2.732;2022-09-01T03:09:23;102075.36;;;13.23;33.00
69219;BME280;56232;53.384;-2.732;2022-09-01T03:11:50;102072.97;;;12.70;32.16
69219;BME280;56232;53.384;-2.732;2022-09-01T03:14:15;102071.93;;;13.42;32.48
69219;BME280;56232;53.384;-2.732;2022-09-01T03:16:40;102076.27;;;13.94;32.96
69219;BME280;56232;53.384;-2.732;2022-09-01T03:19:07;102071.36;;;13.56;32.07
69219;BME280;56232;53.384;-2.732;2022-09-01T03:21:33;102071.05;;;12.92;32.54
69219;BME280;56232;53.384;-2.732;2022-09-01T03:23:57;102068.58;;;13.55;33.15
69219;BME280;56232;53.384;-2.732;2022-09-01T03:26:23;102064.38;;;13.45;33.05
69219;BME280;56232;53.384;-2.732;2022-09-01T03:28:49;102062.57;;;13.46;33.26
69219;BME280;56232;53.384;-2.732;2022-09-01T03:31:15;102060.88;;;12.87;33.34
69219;BME280;56232;53.384;-2.732;2022-09-01T03:33:41;102058.23;;;13.42;32.03
69219;BME280;56232;53.384;-2.732;2022-09-01T03:36:06;102059.85;;;13.38;32.04
69219;BME280;56232;53.384;-2.732;2022-09-01T03:38:32;102064.43;;;13.32;31.34
69219;BME280;56232;53.384;-2.732;2022-09-01T03:41:00;102065.06;;;13.80;31.26
69219;BME280;56232;53.384;-2.732;2022-09-01T03:43:22;102064.97;;;13.76;32.59
69219;BME280;56232;53.384;-2.732;2022-09-01T03:45:49;102062.79;;;13.13;32.37
69219;BME280;56232;53.384;-2.732;2022-09-01T03:48:14;102061.38;;;13.07;33.62
69219;BME280;56232;53.384;-2.732;2022-09-01T03:50:41;102061.04;;;13.06;33.27
69219;BME280;56232;53.384;-2.732;2022-09-01T03:53:06;102055.24;;;13.13;32.42
69219;BME280;56232;53.384;-2.732;2022-09-01T03:55:34;102057.52;;;13.22;33.30
69219;BME280;56232;53.384;-2.732;2022-09-01T03:57:59;102050.77;;;14.15;33.59
69219;BME280;56232;53.384;-2.732;2022-09-01T04:00:24;102047.57;;;13.03;33.66
69219;BME280;56232;53.384;-2.732;2022-09-01T04:02:50;102045.07;;;13.41;32.92
69219;BME280;56232;53.384;-2.732;2022-09-01T04:05:14;102042.82;;;12.32;31.44
69219;BME280;56232;53.384;-2.732;2022-09-01T04:07:39;102041.01;;;13.32;31.99
69219;BME280;56232;53.384;-2.732;2022-09-01T04:10:06;102035.57;;;13.81;31.19
69219;BME280;56232;53.384;-2.732;2022-09-01T04:12:30;102036.50;;;13.83;32.98
69219;BME280;56232;53.384;-2.732;2022-09-01T04:14:56;102032.40;;;13.78;32.87
69219;BME280;56232;53.384;-2.732;2022-09-01T04:17:22;102033.84;;;12.71;33.76
69219;BME280;56232;53.384;-2.732;2022-09-01T04:19:47;102029.14;;;12.74;32.71
69219;BME280;56232;53.384;-2.732;2022-09-01T04:22:13;102025.29;;;12.80;32.07
69219;BME280;56232;53.384;-2.732;2022-09-01T04:24:39;102020.11;;;12.83;32.44
69219;BME280;56232;53.384;-2.732;2022-09-01T04:27:04;102022.79;;;13.78;32.49
69219;BME280;56232;53.384;-2.732;2022-09-01T04:29:30;102019.23;;;13.17;32.30
69219;BME280;56232;53.384;-2.732;2022-09-01T04:31:57;102020.65;;;13.06;31.93
69219;BME280;56232;53.384;-2.732;2022-09-01T04:34:22;102017.57;;;12.95;32.43
69219;BME280;56232;53.384;-2.732;2022-09-01T04:36:47;102014.17;;;13.32;32.12
69219;BME280;56232;53.384;-2.732;2022-09-01T04:39:13;102010.15;;;13.16;33.91
69219;BME280;56232;53.384;-2.732;2022-09-01T04:41:41;102011.84;;;13.09;34.13
69219;BME280;56232;53.384;-2.732;2022-09-01T04:44:05;102007.65;;;12.56;33.13
69219;BME280;56232;53.384;-2.732;2022-09-01T04:46:31;102009.47;;;13.02;33.20
69219;BME280;56232;53.384;-2.732;2022-09-01T04:48:56;102010.36;;;12.41;33.61
69219;BME280;56232;53.384;-2.732;2022-09-01T04:51:21;102011.41;;;12.87;33.56
69219;BME280;56232;53.384;-2.732;2022-09-01T04:53:47;102011.75;;;12.80;33.20
69219;BME280;56232;53.384;-2.732;2022-09-01T04:56:13;102012.77;;;12.85;33.77
69219;BME280;56232;53.384;-2.732;2022-09-01T04:58:38;102014.52;;;12.39;34.48
69219;BME280;56232;53.384;-2.732;2022-09-01T05:01:12;102013.56;;;11.91;34.10
69219;BME280;56232;53.384;-2.732;2022-09-01T05:03:29;102013.82;;;12.88;33.14
69219;BME280;56232;53.384;-2.732;2022-09-01T05:05:55;102014.77;;;12.39;33.00
69219;BME280;56232;53.384;-2.732;2022-09-01T05:08:21;102012.24;;;12.89;33.26
69219;BME280;56232;53.384;-2.732;2022-09-01T05:10:48;102011.59;;;12.88;33.70
69219;BME280;56232;53.384;-2.732;2022-09-01T05:13:13;102011.12;;;12.84;33.53
69219;BME280;56232;53.384;-2.732;2022-09-01T05:15:38;102007.59;;;11.87;33.46
69219;BME280;56232;53.384;-2.732;2022-09-01T05:18:03;102005.25;;;12.40;35.76
69219;BME280;56232;53.384;-2.732;2022-09-01T05:20:28;102007.05;;;12.40;34.63
69219;BME280;56232;53.384;-2.732;2022-09-01T05:22:53;102009.51;;;12.90;33.55
69219;BME280;56232;53.384;-2.732;2022-09-01T05:25:19;102008.80;;;12.98;33.58
69219;BME280;56232;53.384;-2.732;2022-09-01T05:27:45;102010.08;;;12.97;33.85
69219;BME280;56232;53.384;-2.732;2022-09-01T05:30:11;102013.48;;;12.47;33.76
69219;BME280;56232;53.384;-2.732;2022-09-01T05:32:37;102011.70;;;12.18;33.12
69219;BME280;56232;53.384;-2.732;2022-09-01T05:35:02;102010.87;;;12.70;32.18
69219;BME280;56232;53.384;-2.732;2022-09-01T05:37:28;102011.06;;;12.24;32.53
69219;BME280;56232;53.384;-2.732;2022-09-01T05:39:53;102009.40;;;13.30;32.92
69219;BME280;56232;53.384;-2.732;2022-09-01T05:42:19;102012.19;;;13.43;33.32
69219;BME280;56232;53.384;-2.732;2022-09-01T05:44:45;102011.98;;;13.36;33.30
69219;BME280;56232;53.384;-2.732;2022-09-01T05:47:11;102013.11;;;12.91;33.80
69219;BME280;56232;53.384;-2.732;2022-09-01T05:49:41;102010.57;;;12.94;33.83
69219;BME280;56232;53.384;-2.732;2022-09-01T05:52:02;102007.74;;;13.12;33.84
69219;BME280;56232;53.384;-2.732;2022-09-01T05:54:28;102006.36;;;12.88;33.35
69219;BME280;56232;53.384;-2.732;2022-09-01T05:56:54;102005.21;;;13.97;34.28
69219;BME280;56232;53.384;-2.732;2022-09-01T05:59:19;102008.07;;;13.64;34.48
69219;BME280;56232;53.384;-2.732;2022-09-01T06:01:45;102005.38;;;14.07;34.26
69219;BME280;56232;53.384;-2.732;2022-09-01T06:04:10;102007.35;;;13.11;34.79
69219;BME280;56232;53.384;-2.732;2022-09-01T06:06:39;102005.05;;;13.17;34.88
69219;BME280;56232;53.384;-2.732;2022-09-01T06:09:02;102007.53;;;13.83;35.58
69219;BME280;56232;53.384;-2.732;2022-09-01T06:11:27;102008.62;;;13.52;33.21
69219;BME280;56232;53.384;-2.732;2022-09-01T06:13:53;102004.48;;;13.85;34.54
69219;BME280;56232;53.384;-2.732;2022-09-01T06:16:18;101996.19;;;13.79;33.72
69219;BME280;56232;53.384;-2.732;2022-09-01T06:18:44;101998.07;;;13.93;35.40
69219;BME280;56232;53.384;-2.732;2022-09-01T06:21:11;101996.85;;;14.66;35.14
69219;BME280;56232;53.384;-2.732;2022-09-01T06:23:35;101999.71;;;14.37;33.08
69219;BME280;56232;53.384;-2.732;2022-09-01T06:26:01;102001.68;;;15.01;32.53
69219;BME280;56232;53.384;-2.732;2022-09-01T06:28:26;102002.42;;;14.79;34.26
69219;BME280;56232;53.384;-2.732;2022-09-01T06:30:52;102006.54;;;14.90;33.88
69219;BME280;56232;53.384;-2.732;2022-09-01T06:33:17;102003.88;;;15.91;33.50
69219;BME280;56232;53.384;-2.732;2022-09-01T06:35:43;102004.87;;;15.99;33.52
69219;BME280;56232;53.384;-2.732;2022-09-01T06:38:10;102005.47;;;17.58;32.62
69219;BME280;56232;53.384;-2.732;2022-09-01T06:40:35;102007.52;;;19.14;29.70
69219;BME280;56232;53.384;-2.732;2022-09-01T06:43:00;102000.63;;;21.46;28.83
69219;BME280;56232;53.384;-2.732;2022-09-01T06:45:26;102004.54;;;23.29;26.72
69219;BME280;56232;53.384;-2.732;2022-09-01T06:47:51;102004.78;;;24.59;26.41
69219;BME280;56232;53.384;-2.732;2022-09-01T06:50:19;102002.18;;;25.21;25.79
69219;BME280;56232;53.384;-2.732;2022-09-01T06:52:43;102005.11;;;23.11;24.36
69219;BME280;56232;53.384;-2.732;2022-09-01T06:55:09;102000.95;;;21.67;25.60
69219;BME280;56232;53.384;-2.732;2022-09-01T06:57:35;102003.42;;;19.91;25.98
69219;BME280;56232;53.384;-2.732;2022-09-01T06:59:59;102001.15;;;21.64;25.29
69219;BME280;56232;53.384;-2.732;2022-09-01T07:02:25;102001.44;;;20.03;27.03
69219;BME280;56232;53.384;-2.732;2022-09-01T07:04:50;101999.33;;;20.38;26.53
69219;BME280;56232;53.384;-2.732;2022-09-01T07:07:16;101999.87;;;20.66;26.54
69219;BME280;56232;53.384;-2.732;2022-09-01T07:09:42;102000.13;;;19.14;27.04
69219;BME280;56232;53.384;-2.732;2022-09-01T07:12:07;101998.92;;;19.09;27.43
69219;BME280;56232;53.384;-2.732;2022-09-01T07:14:35;102001.06;;;18.60;27.64
69219;BME280;56232;53.384;-2.732;2022-09-01T07:16:58;101998.47;;;18.88;26.68
69219;BME280;56232;53.384;-2.732;2022-09-01T07:19:24;101996.52;;;19.32;27.99
69219;BME280;56232;53.384;-2.732;2022-09-01T07:21:50;101991.95;;;19.50;30.48
69219;BME280;56232;53.384;-2.732;2022-09-01T07:24:15;101989.30;;;18.56;30.62
69219;BME280;56232;53.384;-2.732;2022-09-01T07:26:41;101988.30;;;19.28;29.50
69219;BME280;56232;53.384;-2.732;2022-09-01T07:29:06;101988.82;;;20.05;28.71
69219;BME280;56232;53.384;-2.732;2022-09-01T07:31:36;101991.10;;;20.90;27.86
69219;BME280;56232;53.384;-2.732;2022-09-01T07:34:00;101989.05;;;19.93;28.55
69219;BME280;56232;53.384;-2.732;2022-09-01T07:36:24;101985.72;;;20.23;26.76
69219;BME280;56232;53.384;-2.732;2022-09-01T07:38:49;101984.42;;;19.17;30.94
69219;BME280;56232;53.384;-2.732;2022-09-01T07:41:14;101977.55;;;18.59;30.33
69219;BME280;56232;53.384;-2.732;2022-09-01T07:43:41;101981.57;;;18.47;31.21
69219;BME280;56232;53.384;-2.732;2022-09-01T07:46:06;101983.08;;;18.66;29.25
69219;BME280;56232;53.384;-2.732;2022-09-01T07:48:31;101982.03;;;19.65;29.65
69219;BME280;56232;53.384;-2.732;2022-09-01T07:50:56;101983.29;;;21.47;29.63
69219;BME280;56232;53.384;-2.732;2022-09-01T07:53:23;101978.91;;;21.88;28.81
69219;BME280;56232;53.384;-2.732;2022-09-01T07:55:48;101980.33;;;22.65;25.41
69219;BME280;56232;53.384;-2.732;2022-09-01T07:58:13;101980.35;;;24.56;24.29
69219;BME280;56232;53.384;-2.732;2022-09-01T08:00:39;101975.67;;;25.31;23.34
69219;BME280;56232;53.384;-2.732;2022-09-01T08:03:04;101983.76;;;24.10;23.39
69219;BME280;56232;53.384;-2.732;2022-09-01T08:05:29;101990.35;;;22.60;25.42
69219;BME280;56232;53.384;-2.732;2022-09-01T08:07:55;101989.10;;;21.55;26.84
69219;BME280;56232;53.384;-2.732;2022-09-01T08:10:20;101988.05;;;20.90;27.58
69219;BME280;56232;53.384;-2.732;2022-09-01T08:12:46;101982.24;;;20.91;26.86
69219;BME280;56232;53.384;-2.732;2022-09-01T08:15:11;101982.70;;;21.74;26.27
69219;BME280;56232;53.384;-2.732;2022-09-01T08:17:37;101975.10;;;24.10;25.55
69219;BME280;56232;53.384;-2.732;2022-09-01T08:20:03;101975.50;;;24.09;25.22
69219;BME280;56232;53.384;-2.732;2022-09-01T08:22:27;101979.91;;;22.89;25.33
69219;BME280;56232;53.384;-2.732;2022-09-01T08:24:53;101976.82;;;24.52;25.24
69219;BME280;56232;53.384;-2.732;2022-09-01T08:27:19;101974.57;;;24.62;25.01
69219;BME280;56232;53.384;-2.732;2022-09-01T08:29:44;101974.50;;;24.48;24.11
69219;BME280;56232;53.384;-2.732;2022-09-01T08:32:10;101969.97;;;24.35;23.71
69219;BME280;56232;53.384;-2.732;2022-09-01T08:34:36;101969.94;;;24.17;24.28
69219;BME280;56232;53.384;-2.732;2022-09-01T08:37:01;101975.57;;;22.55;24.43
69219;BME280;56232;53.384;-2.732;2022-09-01T08:39:26;101976.01;;;22.67;25.05
69219;BME280;56232;53.384;-2.732;2022-09-01T08:41:57;101984.26;;;21.98;25.43
69219;BME280;56232;53.384;-2.732;2022-09-01T08:44:23;101981.05;;;22.18;26.02
69219;BME280;56232;53.384;-2.732;2022-09-01T08:46:43;101977.11;;;22.76;25.21
69219;BME280;56232;53.384;-2.732;2022-09-01T08:49:13;101974.39;;;23.90;24.32
69219;BME280;56232;53.384;-2.732;2022-09-01T08:51:38;101971.46;;;25.54;23.78
69219;BME280;56232;53.384;-2.732;2022-09-01T08:54:05;101971.27;;;25.56;23.44
69219;BME280;56232;53.384;-2.732;2022-09-01T08:56:26;101972.04;;;26.23;22.38
69219;BME280;56232;53.384;-2.732;2022-09-01T08:58:51;101974.63;;;27.14;22.31
69219;BME280;56232;53.384;-2.732;2022-09-01T09:01:21;101968.13;;;26.02;22.41
69219;BME280;56232;53.384;-2.732;2022-09-01T09:03:58;101968.01;;;24.66;23.30
69219;BME280;56232;53.384;-2.732;2022-09-01T09:06:13;101964.55;;;26.57;22.14
69219;BME280;56232;53.384;-2.732;2022-09-01T09:08:47;101960.21;;;29.08;20.14
69219;BME280;56232;53.384;-2.732;2022-09-01T09:11:00;101963.89;;;30.31;17.94
69219;BME280;56232;53.384;-2.732;2022-09-01T09:13:32;101956.96;;;30.29;17.79
69219;BME280;56232;53.384;-2.732;2022-09-01T09:15:52;101957.16;;;30.54;16.98
69219;BME280;56232;53.384;-2.732;2022-09-01T09:18:21;101953.62;;;31.05;17.16
69219;BME280;56232;53.384;-2.732;2022-09-01T09:20:42;101957.44;;;31.85;17.07
69219;BME280;56232;53.384;-2.732;2022-09-01T09:23:13;101952.62;;;31.54;16.42
69219;BME280;56232;53.384;-2.732;2022-09-01T09:25:37;101953.61;;;29.94;16.87
69219;BME280;56232;53.384;-2.732;2022-09-01T09:27:57;101957.98;;;29.51;16.93
69219;BME280;56232;53.384;-2.732;2022-09-01T09:30:25;101951.08;;;30.11;17.13
69219;BME280;56232;53.384;-2.732;2022-09-01T09:32:51;101950.25;;;29.82;17.10
69219;BME280;56232;53.384;-2.732;2022-09-01T09:35:21;101944.38;;;30.95;16.60
69219;BME280;56232;53.384;-2.732;2022-09-01T09:37:39;101944.14;;;31.84;16.05
69219;BME280;56232;53.384;-2.732;2022-09-01T09:40:09;101945.20;;;31.70;15.56
69219;BME280;56232;53.384;-2.732;2022-09-01T09:42:30;101944.92;;;31.62;15.13
69219;BME280;56232;53.384;-2.732;2022-09-01T09:44:56;101941.28;;;31.33;15.76
69219;BME280;56232;53.384;-2.732;2022-09-01T09:49:47;101942.95;;;31.87;15.26
69219;BME280;56232;53.384;-2.732;2022-09-01T09:52:16;101938.81;;;30.73;15.78
69219;BME280;56232;53.384;-2.732;2022-09-01T09:54:40;101939.56;;;30.46;15.79
69219;BME280;56232;53.384;-2.732;2022-09-01T09:57:09;101938.10;;;30.54;15.97
69219;BME280;56232;53.384;-2.732;2022-09-01T09:59:31;101937.58;;;31.16;15.76
69219;BME280;56232;53.384;-2.732;2022-09-01T10:01:57;101929.87;;;30.20;15.71
69219;BME280;56232;53.384;-2.732;2022-09-01T10:06:45;101932.40;;;29.25;16.45
69219;BME280;56232;53.384;-2.732;2022-09-01T10:09:15;101925.39;;;29.08;17.15
69219;BME280;56232;53.384;-2.732;2022-09-01T10:11:39;101924.53;;;27.82;17.50
69219;BME280;56232;53.384;-2.732;2022-09-01T10:14:06;101930.04;;;27.15;17.97
69219;BME280;56232;53.384;-2.732;2022-09-01T10:16:31;101925.56;;;27.28;18.12
69219;BME280;56232;53.384;-2.732;2022-09-01T10:18:54;101920.07;;;27.79;18.05
69219;BME280;56232;53.384;-2.732;2022-09-01T10:21:22;101915.72;;;28.80;17.50
69219;BME280;56232;53.384;-2.732;2022-09-01T10:23:44;101917.03;;;29.18;16.98
69219;BME280;56232;53.384;-2.732;2022-09-01T10:26:13;101908.26;;;30.49;16.53
69219;BME280;56232;53.384;-2.732;2022-09-01T10:28:42;101912.24;;;30.81;15.87
69219;BME280;56232;53.384;-2.732;2022-09-01T10:31:01;101907.22;;;30.83;16.05
69219;BME280;56232;53.384;-2.732;2022-09-01T10:33:26;101912.97;;;31.20;15.24
69219;BME280;56232;53.384;-2.732;2022-09-01T10:35:53;101909.41;;;30.67;15.28
69219;BME280;56232;53.384;-2.732;2022-09-01T10:38:20;101907.73;;;30.98;15.90
69219;BME280;56232;53.384;-2.732;2022-09-01T10:40:44;101899.94;;;29.98;16.29
69219;BME280;56232;53.384;-2.732;2022-09-01T10:45:37;101901.25;;;28.51;17.91
69219;BME280;56232;53.384;-2.732;2022-09-01T10:50:28;101897.30;;;26.18;19.44
69219;BME280;56232;53.384;-2.732;2022-09-01T10:52:57;101895.55;;;26.56;20.06
69219;BME280;56232;53.384;-2.732;2022-09-01T10:55:17;101887.94;;;26.84;20.33
69219;BME280;56232;53.384;-2.732;2022-09-01T10:57:50;101885.09;;;27.28;20.01
69219;BME280;56232;53.384;-2.732;2022-09-01T11:02:33;101877.66;;;26.16;20.79
69219;BME280;56232;53.384;-2.732;2022-09-01T11:07:29;101867.39;;;25.55;21.31
69219;BME280;56232;53.384;-2.732;2022-09-01T11:12:25;101858.15;;;24.44;21.72
69219;BME280;56232;53.384;-2.732;2022-09-01T11:14:46;101851.26;;;25.14;21.98
69219;BME280;56232;53.384;-2.732;2022-09-01T11:17:11;101850.53;;;25.18;21.80
69219;BME280;56232;53.384;-2.732;2022-09-01T11:19:38;101846.47;;;24.67;21.98
69219;BME280;56232;53.384;-2.732;2022-09-01T11:22:02;101844.35;;;25.18;21.51
69219;BME280;56232;53.384;-2.732;2022-09-01T11:26:48;101841.38;;;24.22;21.58
69219;BME280;56232;53.384;-2.732;2022-09-01T11:31:41;101833.77;;;25.23;21.34
69219;BME280;56232;53.384;-2.732;2022-09-01T11:34:12;101838.87;;;24.77;21.11
69219;BME280;56232;53.384;-2.732;2022-09-01T11:36:32;101827.90;;;24.26;21.56
69219;BME280;56232;53.384;-2.732;2022-09-01T11:39:05;101825.74;;;24.05;22.05
69219;BME280;56232;53.384;-2.732;2022-09-01T11:41:25;101817.83;;;24.97;21.46
69219;BME280;56232;53.384;-2.732;2022-09-01T11:43:46;101814.60;;;23.76;21.62
69219;BME280;56232;53.384;-2.732;2022-09-01T11:46:17;101812.10;;;24.38;21.52
69219;BME280;56232;53.384;-2.732;2022-09-01T11:48:38;101815.74;;;24.65;21.30
69219;BME280;56232;53.384;-2.732;2022-09-01T11:51:04;101813.85;;;23.75;21.60
69219;BME280;56232;53.384;-2.732;2022-09-01T11:53:30;101804.09;;;24.45;21.34
69219;BME280;56232;53.384;-2.732;2022-09-01T11:55:56;101808.46;;;24.99;21.15
69219;BME280;56232;53.384;-2.732;2022-09-01T11:58:29;101805.02;;;24.03;21.22
69219;BME280;56232;53.384;-2.732;2022-09-01T12:00:45;101805.02;;;24.11;21.07
69219;BME280;56232;53.384;-2.732;2022-09-01T12:03:18;101797.34;;;24.49;21.17
69219;BME280;56232;53.384;-2.732;2022-09-01T12:05:37;101801.41;;;24.09;21.16
69219;BME280;56232;53.384;-2.732;2022-09-01T12:08:04;101804.24;;;24.41;21.28
69219;BME280;56232;53.384;-2.732;2022-09-01T12:10:31;101808.27;;;24.41;21.26
69219;BME280;56232;53.384;-2.732;2022-09-01T12:12:59;101797.52;;;24.97;21.37
69219;BME280;56232;53.384;-2.732;2022-09-01T12:15:21;101800.32;;;24.13;21.32
69219;BME280;56232;53.384;-2.732;2022-09-01T12:17:44;101793.68;;;24.28;20.35
69219;BME280;56232;53.384;-2.732;2022-09-01T12:22:35;101793.78;;;25.24;20.97
69219;BME280;56232;53.384;-2.732;2022-09-01T12:25:01;101795.59;;;24.72;20.65
69219;BME280;56232;53.384;-2.732;2022-09-01T12:27:26;101787.84;;;25.27;20.65
69219;BME280;56232;53.384;-2.732;2022-09-01T12:29:52;101785.54;;;24.85;21.05
69219;BME280;56232;53.384;-2.732;2022-09-01T12:32:17;101783.13;;;23.92;20.55
69219;BME280;56232;53.384;-2.732;2022-09-01T12:34:44;101778.64;;;23.97;20.69
69219;BME280;56232;53.384;-2.732;2022-09-01T12:37:18;101775.47;;;25.02;20.75
69219;BME280;56232;53.384;-2.732;2022-09-01T12:39:36;101771.79;;;24.62;20.70
69219;BME280;56232;53.384;-2.732;2022-09-01T12:42:03;101770.41;;;24.99;20.73
69219;BME280;56232;53.384;-2.732;2022-09-01T12:44:27;101772.95;;;25.59;20.57
69219;BME280;56232;53.384;-2.732;2022-09-01T12:46:50;101773.26;;;25.07;20.34
69219;BME280;56232;53.384;-2.732;2022-09-01T12:49:17;101770.44;;;25.34;20.47
69219;BME280;56232;53.384;-2.732;2022-09-01T12:51:42;101770.78;;;25.42;20.17
69219;BME280;56232;53.384;-2.732;2022-09-01T12:54:07;101760.05;;;25.36;20.29